Time;durP1;ratioP1;P1;durP2;ratioP2;P2;SDS_P1;SDS_P2;PMS_P1;PMS_P2;Temp;Humidity;BMP_temperature;BMP_pressure;BME280_temperature;BME280_humidity;BME280_pressure;Samples;Min_cycle;Max_cycle;Signal;HPM_P1;HPM_P2
2023/07/26 00:02:16;;;;;;;3.90;3.00;;;15.90;99.90;;;;;;5006582;28;20176;-83
2023/07/26 00:04:41;;;;;;;3.53;2.97;;;15.90;1.00;;;;;;5000432;28;20187;-83
2023/07/26 00:07:07;;;;;;;6.67;2.77;;;15.90;1.00;;;;;;5001089;28;20207;-83
2023/07/26 00:09:32;;;;;;;7.33;3.10;;;15.90;1.00;;;;;;4998820;28;20175;-83
2023/07/26 00:11:58;;;;;;;4.47;3.10;;;15.90;1.00;;;;;;4999593;28;20647;-83
2023/07/26 00:14:24;;;;;;;3.20;2.90;;;15.80;1.00;;;;;;5000670;28;20232;-83
2023/07/26 00:16:49;;;;;;;5.17;3.17;;;15.80;1.00;;;;;;5030478;28;20260;-83
2023/07/26 00:19:19;;;;;;;3.43;3.13;;;15.80;1.00;;;;;;5060424;28;20191;-83
2023/07/26 00:21:45;;;;;;;4.20;3.23;;;15.80;1.00;;;;;;5082636;28;20418;-84
2023/07/26 00:24:10;;;;;;;8.20;3.37;;;15.70;1.00;;;;;;5081712;28;20484;-84
2023/07/26 00:26:36;;;;;;;10.23;3.13;;;15.80;1.00;;;;;;5080485;28;20467;-83
2023/07/26 00:29:01;;;;;;;4.67;2.80;;;15.70;1.00;;;;;;5082497;28;20229;-83
2023/07/26 00:31:27;;;;;;;8.13;3.57;;;15.80;1.00;;;;;;5082518;28;20169;-83
2023/07/26 00:33:53;;;;;;;5.10;2.80;;;15.80;1.00;;;;;;5081070;28;20173;-83
2023/07/26 00:36:18;;;;;;;8.50;3.10;;;15.70;1.00;;;;;;5080147;28;20190;-81
2023/07/26 00:38:43;;;;;;;4.63;3.10;;;15.70;1.00;;;;;;5081131;28;20176;-83
2023/07/26 00:41:09;;;;;;;3.53;2.77;;;15.70;1.00;;;;;;5082169;28;20184;-83
2023/07/26 00:43:35;;;;;;;4.23;3.27;;;15.70;1.00;;;;;;5080544;28;20271;-84
2023/07/26 00:46:00;;;;;;;5.17;3.23;;;15.70;1.00;;;;;;5080775;28;20207;-83
2023/07/26 00:48:26;;;;;;;4.27;2.77;;;15.70;1.00;;;;;;5038098;28;20192;-82
2023/07/26 00:50:53;;;;;;;3.40;3.10;;;15.70;1.00;;;;;;5081559;28;20184;-83
2023/07/26 00:53:22;;;;;;;3.33;2.70;;;15.70;1.00;;;;;;5082918;28;20169;-82
2023/07/26 00:55:48;;;;;;;6.23;3.80;;;15.70;1.00;;;;;;5083312;28;20465;-82
2023/07/26 00:58:14;;;;;;;5.00;3.20;;;15.70;1.00;;;;;;5081038;28;20954;-83
2023/07/26 01:00:43;;;;;;;4.83;3.03;;;15.70;1.00;;;;;;5080665;28;20509;-83
2023/07/26 01:03:08;;;;;;;4.30;3.00;;;15.70;1.00;;;;;;5082250;28;20448;-83
2023/07/26 01:05:41;;;;;;;3.70;2.90;;;15.70;1.00;;;;;;5081213;28;20508;-83
2023/07/26 01:08:17;;;;;;;3.77;3.00;;;15.70;1.00;;;;;;5081138;28;20201;-81
2023/07/26 01:10:55;;;;;;;6.33;3.90;;;15.70;1.00;;;;;;5081332;28;20414;-83
2023/07/26 01:13:49;;;;;;;7.40;3.33;;;15.60;1.00;;;;;;5080403;28;20514;-82
2023/07/26 01:16:16;;;;;;;5.37;3.83;;;15.70;1.00;;;;;;5035509;28;20431;-79
2023/07/26 01:18:41;;;;;;;4.80;3.50;;;15.70;1.00;;;;;;5067633;28;20506;-83
2023/07/26 01:21:07;;;;;;;4.10;3.70;;;15.60;1.00;;;;;;5082047;28;20410;-83
2023/07/26 01:23:33;;;;;;;4.80;3.57;;;15.60;1.00;;;;;;5080783;28;20689;-83
2023/07/26 01:25:59;;;;;;;4.47;3.40;;;15.70;1.00;;;;;;5080935;28;20256;-83
2023/07/26 01:28:24;;;;;;;4.40;3.80;;;15.70;1.00;;;;;;5082169;28;20465;-83
2023/07/26 01:30:50;;;;;;;4.60;3.77;;;15.70;1.00;;;;;;5080847;28;20180;-83
2023/07/26 01:33:17;;;;;;;6.33;3.53;;;15.70;1.00;;;;;;5080994;28;20176;-83
2023/07/26 01:35:45;;;;;;;3.80;3.50;;;15.70;1.00;;;;;;5079806;28;20459;-83
2023/07/26 01:38:11;;;;;;;4.90;3.83;;;15.60;1.00;;;;;;5081064;28;20439;-83
2023/07/26 01:40:37;;;;;;;8.90;3.77;;;15.60;2.50;;;;;;5081621;28;20429;-83
2023/07/26 01:43:03;;;;;;;4.93;3.80;;;15.70;1.00;;;;;;5081103;28;20446;-83
2023/07/26 01:45:29;;;;;;;4.30;3.90;;;15.60;1.00;;;;;;5068940;28;20447;-83
2023/07/26 01:47:54;;;;;;;5.77;3.57;;;15.70;1.00;;;;;;5030990;28;20450;-84
2023/07/26 01:50:20;;;;;;;3.37;3.07;;;15.70;1.00;;;;;;5000135;28;20240;-81
2023/07/26 01:52:46;;;;;;;4.20;3.00;;;15.70;1.00;;;;;;4999079;28;20230;-83
2023/07/26 01:55:11;;;;;;;5.50;3.30;;;15.70;1.00;;;;;;4999151;28;20219;-84
2023/07/26 01:57:37;;;;;;;4.47;3.90;;;15.60;1.00;;;;;;4997858;28;20303;-83
2023/07/26 02:00:04;;;;;;;5.73;3.73;;;15.60;1.00;;;;;;4998163;28;20190;-82
2023/07/26 02:02:30;;;;;;;5.37;3.93;;;15.60;8.10;;;;;;4999103;28;20199;-83
2023/07/26 02:04:56;;;;;;;4.83;4.30;;;15.60;33.40;;;;;;4998870;28;20452;-83
2023/07/26 02:07:21;;;;;;;5.30;3.80;;;15.60;48.80;;;;;;4998826;28;20275;-83
2023/07/26 02:09:47;;;;;;;4.03;3.63;;;15.60;90.10;;;;;;5001216;28;20213;-83
2023/07/26 02:12:12;;;;;;;4.80;3.57;;;15.60;99.90;;;;;;5001816;28;20640;-83
2023/07/26 02:14:38;;;;;;;14.33;4.53;;;15.50;99.90;;;;;;5002949;28;20171;-83
2023/07/26 02:17:04;;;;;;;6.20;4.10;;;15.50;99.90;;;;;;5065039;28;20196;-84
2023/07/26 02:19:29;;;;;;;7.07;4.23;;;15.50;99.90;;;;;;5084066;28;20196;-83
2023/07/26 02:21:55;;;;;;;3.70;3.23;;;15.50;99.90;;;;;;5086189;28;20180;-83
2023/07/26 02:24:21;;;;;;;4.73;4.33;;;15.50;99.90;;;;;;5086045;28;20203;-83
2023/07/26 02:26:46;;;;;;;8.10;3.73;;;15.50;99.90;;;;;;5084864;28;20238;-82
2023/07/26 02:29:12;;;;;;;6.00;3.60;;;15.50;99.90;;;;;;5084460;28;21002;-82
2023/07/26 02:31:37;;;;;;;4.20;3.80;;;15.40;99.90;;;;;;5085503;28;20176;-83
2023/07/26 02:34:03;;;;;;;5.87;4.80;;;15.50;99.90;;;;;;5084460;28;20181;-83
2023/07/26 02:36:28;;;;;;;8.60;4.00;;;15.40;99.90;;;;;;5085060;28;20210;-83
2023/07/26 02:38:54;;;;;;;7.70;3.53;;;15.40;99.90;;;;;;5083621;28;20656;-83
2023/07/26 02:41:19;;;;;;;4.73;4.20;;;15.40;99.90;;;;;;5083450;28;20178;-83
2023/07/26 02:43:45;;;;;;;4.60;4.20;;;15.40;99.90;;;;;;5083778;28;20184;-83
2023/07/26 02:46:10;;;;;;;5.97;4.00;;;15.40;99.90;;;;;;5048732;28;20192;-83
2023/07/26 02:48:36;;;;;;;5.30;4.40;;;15.40;1.00;;;;;;5001111;28;20703;-82
2023/07/26 02:51:02;;;;;;;6.23;4.23;;;15.30;1.00;;;;;;5001184;28;20176;-82
2023/07/26 02:53:28;;;;;;;4.80;4.23;;;15.30;1.00;;;;;;5001917;28;20492;-83
2023/07/26 02:55:53;;;;;;;7.60;4.20;;;15.30;1.00;;;;;;5001050;28;20508;-83
2023/07/26 02:58:19;;;;;;;5.17;4.17;;;15.30;1.00;;;;;;5000375;28;20233;-83
2023/07/26 03:00:45;;;;;;;10.63;3.70;;;15.20;1.00;;;;;;5000942;28;20214;-82
2023/07/26 03:03:10;;;;;;;4.27;3.67;;;15.20;1.00;;;;;;5001540;28;20179;-83
2023/07/26 03:05:37;;;;;;;5.70;4.80;;;15.20;1.00;;;;;;5001734;28;20199;-83
2023/07/26 03:08:02;;;;;;;8.50;3.93;;;15.30;30.30;;;;;;4999992;28;20729;-83
2023/07/26 03:10:28;;;;;;;7.20;5.10;;;15.20;40.50;;;;;;5001509;28;20421;-84
2023/07/26 03:12:54;;;;;;;7.70;4.80;;;15.20;99.90;;;;;;5001466;28;20196;-83
2023/07/26 03:15:20;;;;;;;7.30;4.30;;;15.20;99.90;;;;;;5005448;28;20181;-83
2023/07/26 03:17:46;;;;;;;8.70;4.87;;;15.20;99.90;;;;;;5015173;28;20456;-82
2023/07/26 03:20:11;;;;;;;9.80;4.87;;;15.30;99.90;;;;;;4999384;28;20183;-82
2023/07/26 03:22:37;;;;;;;4.53;4.13;;;15.20;99.90;;;;;;5000796;28;20671;-83
2023/07/26 03:25:03;;;;;;;6.03;5.07;;;15.20;99.90;;;;;;5001236;28;20708;-83
2023/07/26 03:27:29;;;;;;;6.00;4.53;;;15.20;99.90;;;;;;5001256;28;20195;-83
2023/07/26 03:29:54;;;;;;;8.00;5.03;;;15.20;99.90;;;;;;5000291;28;20486;-83
2023/07/26 03:32:20;;;;;;;6.00;4.80;;;15.20;1.00;;;;;;4999754;28;20193;-83
2023/07/26 03:34:45;;;;;;;7.57;4.40;;;15.30;1.00;;;;;;5001913;28;20195;-83
2023/07/26 03:37:11;;;;;;;9.37;4.83;;;15.30;1.00;;;;;;5003097;28;20226;-82
2023/07/26 03:39:37;;;;;;;5.40;4.90;;;15.30;99.90;;;;;;5005446;28;20269;-83
2023/07/26 03:42:02;;;;;;;5.83;4.53;;;15.40;99.90;;;;;;5001651;28;20197;-83
2023/07/26 03:44:28;;;;;;;11.80;5.17;;;15.40;99.90;;;;;;5001945;28;20179;-83
2023/07/26 03:46:53;;;;;;;4.90;4.40;;;15.40;99.90;;;;;;5060057;28;20220;-82
2023/07/26 03:49:19;;;;;;;8.33;4.40;;;15.40;95.70;;;;;;5082739;28;20188;-83
2023/07/26 03:51:45;;;;;;;6.30;4.70;;;15.40;59.20;;;;;;5082396;28;20183;-83
2023/07/26 03:54:10;;;;;;;5.87;5.20;;;15.50;15.80;;;;;;5083562;28;20220;-83
2023/07/26 03:56:36;;;;;;;6.37;5.17;;;15.50;1.00;;;;;;5083634;28;20230;-83
2023/07/26 03:59:02;;;;;;;7.23;4.20;;;15.50;1.00;;;;;;5082227;28;20188;-83
2023/07/26 04:01:27;;;;;;;5.43;4.90;;;15.50;1.00;;;;;;5082065;28;20186;-82
2023/07/26 04:03:53;;;;;;;7.00;4.43;;;15.50;1.00;;;;;;5082091;28;20932;-82
2023/07/26 04:06:18;;;;;;;5.67;4.80;;;15.50;1.00;;;;;;5083704;28;20204;-82
2023/07/26 04:08:44;;;;;;;9.10;4.47;;;15.40;1.00;;;;;;5083135;28;20167;-83
2023/07/26 04:11:11;;;;;;;5.23;4.73;;;15.40;1.00;;;;;;5082667;28;20718;-83
2023/07/26 04:13:37;;;;;;;6.30;4.60;;;15.40;1.00;;;;;;5082470;28;20173;-83
2023/07/26 04:16:19;;;;;;;5.33;3.70;;;15.40;1.00;;;;;;5053933;28;20478;-83
2023/07/26 04:18:45;;;;;;;4.53;4.10;;;15.40;1.00;;;;;;5012308;28;20191;-83
2023/07/26 04:21:13;;;;;;;7.30;5.33;;;15.40;1.00;;;;;;4980335;28;20459;-83
2023/07/26 04:23:39;;;;;;;10.83;4.40;;;15.40;1.00;;;;;;4980419;28;20183;-83
2023/07/26 04:26:05;;;;;;;9.10;4.63;;;15.50;1.00;;;;;;4980622;28;20548;-83
2023/07/26 04:28:30;;;;;;;10.67;4.20;;;15.50;1.00;;;;;;4983356;28;20208;-83
2023/07/26 04:30:56;;;;;;;5.30;4.50;;;15.50;1.00;;;;;;4983052;28;20188;-83
2023/07/26 04:33:24;;;;;;;5.27;4.23;;;15.60;1.00;;;;;;4980838;28;20192;-83
2023/07/26 04:35:51;;;;;;;5.77;4.27;;;15.60;1.00;;;;;;4981682;28;20564;-84
2023/07/26 04:38:19;;;;;;;5.90;4.30;;;15.70;1.00;;;;;;4980533;28;20447;-82
2023/07/26 04:40:48;;;;;;;6.80;4.47;;;15.70;99.90;;;;;;4980101;28;20435;-83
2023/07/26 04:43:19;;;;;;;5.00;4.03;;;15.80;99.90;;;;;;4980386;28;20449;-83
2023/07/26 04:45:47;;;;;;;6.20;4.20;;;15.80;99.90;;;;;;4985785;28;20526;-82
2023/07/26 04:48:13;;;;;;;5.90;4.90;;;15.90;99.90;;;;;;4999681;28;20451;-83
2023/07/26 04:50:38;;;;;;;5.37;4.30;;;15.90;99.90;;;;;;5000091;28;20494;-83
2023/07/26 04:53:04;;;;;;;6.10;3.90;;;15.90;99.90;;;;;;4999099;28;20183;-83
2023/07/26 04:55:29;;;;;;;9.30;4.43;;;15.90;99.90;;;;;;4999613;28;20183;-83
2023/07/26 04:57:55;;;;;;;6.60;4.60;;;15.90;99.90;;;;;;4999520;28;20207;-83
2023/07/26 05:00:20;;;;;;;5.27;4.70;;;15.90;99.90;;;;;;5000440;28;20179;-83
2023/07/26 05:02:46;;;;;;;5.33;4.60;;;15.90;99.90;;;;;;4999395;28;20189;-82
2023/07/26 05:05:12;;;;;;;8.80;4.80;;;15.90;99.90;;;;;;5000812;28;20187;-82
2023/07/26 05:07:37;;;;;;;6.13;4.40;;;15.90;99.90;;;;;;5000888;28;20720;-83
2023/07/26 05:10:03;;;;;;;11.07;4.73;;;15.90;99.90;;;;;;5000694;28;20190;-83
2023/07/26 05:12:28;;;;;;;5.50;4.00;;;15.90;99.90;;;;;;4999438;28;20199;-83
2023/07/26 05:14:54;;;;;;;6.30;4.90;;;15.90;99.90;;;;;;5000702;28;20186;-83
2023/07/26 05:17:19;;;;;;;9.17;5.07;;;15.90;99.90;;;;;;4999768;28;20226;-83
2023/07/26 05:19:45;;;;;;;6.97;4.60;;;16.00;99.90;;;;;;4999169;28;20198;-82
2023/07/26 05:22:11;;;;;;;7.13;4.73;;;16.00;99.90;;;;;;4999734;28;20207;-83
2023/07/26 05:24:36;;;;;;;6.67;5.53;;;16.10;99.90;;;;;;4999955;28;20185;-84
2023/07/26 05:27:03;;;;;;;6.07;4.90;;;16.20;99.00;;;;;;4999463;28;20216;-83
2023/07/26 05:29:29;;;;;;;9.60;4.60;;;16.40;25.90;;;;;;4999766;28;20184;-83
2023/07/26 05:31:55;;;;;;;7.00;5.10;;;16.70;1.00;;;;;;4999284;28;20423;-83
2023/07/26 05:34:20;;;;;;;8.43;4.93;;;16.90;1.00;;;;;;4999241;28;20281;-83
2023/07/26 05:36:46;;;;;;;9.13;4.97;;;17.20;1.00;;;;;;4999073;28;20435;-83
2023/07/26 05:39:12;;;;;;;7.80;5.60;;;17.30;1.00;;;;;;5000417;28;20213;-84
2023/07/26 05:41:38;;;;;;;6.53;5.30;;;17.30;1.00;;;;;;4999744;28;20821;-83
2023/07/26 05:44:03;;;;;;;8.43;5.47;;;17.40;1.00;;;;;;5000354;28;20417;-82
2023/07/26 05:46:29;;;;;;;6.97;5.10;;;17.60;1.00;;;;;;5008744;28;20207;-83
2023/07/26 05:48:54;;;;;;;13.40;5.97;;;17.90;1.00;;;;;;5082910;28;20200;-84
2023/07/26 05:51:20;;;;;;;8.30;5.07;;;18.20;99.90;;;;;;5081413;28;20212;-81
2023/07/26 05:53:45;;;;;;;8.40;5.50;;;18.50;99.90;;;;;;5082379;28;20663;-83
2023/07/26 05:56:11;;;;;;;11.50;4.93;;;18.90;99.90;;;;;;5081798;28;20183;-83
2023/07/26 05:58:36;;;;;;;8.20;5.50;;;19.20;99.90;;;;;;5081041;28;20264;-83
2023/07/26 06:01:02;;;;;;;5.67;4.90;;;19.50;99.90;;;;;;5080136;28;20207;-82
2023/07/26 06:03:27;;;;;;;5.80;5.17;;;19.40;99.90;;;;;;5081191;28;20180;-83
2023/07/26 06:05:53;;;;;;;6.37;4.80;;;19.40;99.90;;;;;;5079784;28;20210;-83
2023/07/26 06:08:20;;;;;;;8.10;4.80;;;20.10;99.90;;;;;;5080590;28;20202;-83
2023/07/26 06:10:46;;;;;;;8.97;5.30;;;21.20;99.90;;;;;;5080781;28;20457;-83
2023/07/26 06:13:12;;;;;;;5.83;4.90;;;21.50;99.90;;;;;;5081179;28;20570;-83
2023/07/26 06:15:41;;;;;;;6.63;4.40;;;22.50;99.90;;;;;;5063284;28;20180;-83
2023/07/26 06:18:07;;;;;;;6.07;4.40;;;24.30;99.90;;;;;;5065795;28;20455;-84
2023/07/26 06:20:32;;;;;;;6.83;4.83;;;25.80;1.00;;;;;;5080976;28;20775;-84
2023/07/26 06:22:58;;;;;;;5.20;4.60;;;26.30;1.00;;;;;;5082098;28;20189;-83
2023/07/26 06:25:23;;;;;;;9.53;4.63;;;26.70;1.00;;;;;;5081813;28;20209;-83
2023/07/26 06:27:49;;;;;;;10.13;4.23;;;26.10;1.00;;;;;;5080671;28;20193;-83
2023/07/26 06:30:15;;;;;;;7.17;4.30;;;26.40;1.00;;;;;;5080862;28;20185;-84
2023/07/26 06:32:41;;;;;;;8.20;4.43;;;27.70;1.00;;;;;;5080857;28;20227;-83
2023/07/26 06:35:08;;;;;;;6.47;4.30;;;27.50;1.00;;;;;;5079901;28;20458;-83
2023/07/26 06:37:34;;;;;;;6.70;4.00;;;28.70;1.00;;;;;;5079659;28;20461;-81
2023/07/26 06:40:00;;;;;;;5.90;4.57;;;31.20;1.00;;;;;;5079999;28;20411;-82
2023/07/26 06:42:26;;;;;;;4.70;3.80;;;;;;;;;;5079793;28;20477;-81
2023/07/26 06:44:51;;;;;;;7.83;4.70;;;34.30;1.00;;;;;;5079705;28;20185;-82
2023/07/26 06:47:17;;;;;;;5.17;3.33;;;35.10;99.90;;;;;;5005014;28;20475;-82
2023/07/26 06:49:42;;;;;;;5.97;3.50;;;36.70;99.90;;;;;;5080038;28;20265;-82
2023/07/26 06:52:08;;;;;;;3.60;3.23;;;38.90;99.90;;;;;;5084854;28;20203;-82
2023/07/26 06:54:35;;;;;;;7.87;3.60;;;39.30;99.90;;;;;;5081967;28;20177;-81
2023/07/26 06:57:01;;;;;;;7.23;3.70;;;40.90;99.90;;;;;;5082456;28;20196;-81
2023/07/26 06:59:26;;;;;;;6.57;3.77;;;41.70;99.90;;;;;;5083902;28;20495;-82
2023/07/26 07:01:52;;;;;;;5.53;3.50;;;42.60;99.90;;;;;;5084788;28;20207;-82
2023/07/26 07:04:17;;;;;;;5.67;3.40;;;43.90;99.90;;;;;;5077566;28;20177;-81
2023/07/26 07:06:43;;;;;;;6.50;3.40;;;45.10;99.90;;;;;;5078343;28;20204;-82
2023/07/26 07:09:09;;;;;;;6.47;3.30;;;46.10;99.90;;;;;;5085107;28;20551;-82
2023/07/26 07:11:34;;;;;;;5.53;3.70;;;44.50;99.90;;;;;;5085376;28;20185;-82
2023/07/26 07:14:00;;;;;;;7.13;3.87;;;44.50;99.90;;;;;;5084564;28;20223;-82
2023/07/26 07:16:25;;;;;;;4.27;3.23;;;42.90;99.90;;;;;;5041948;28;20199;-82
2023/07/26 07:18:51;;;;;;;5.73;3.50;;;44.40;99.90;;;;;;5003178;28;20195;-82
2023/07/26 07:21:16;;;;;;;5.80;3.40;;;45.80;99.90;;;;;;5003034;28;20179;-82
2023/07/26 07:23:42;;;;;;;7.20;3.70;;;46.00;99.90;;;;;;5002297;28;20191;-82
2023/07/26 07:26:07;;;;;;;6.33;3.80;;;46.70;99.90;;;;;;5002841;28;20215;-82
2023/07/26 07:28:33;;;;;;;5.70;4.00;;;45.90;99.90;;;;;;5001450;28;20203;-80
2023/07/26 07:30:58;;;;;;;7.00;4.43;;;41.80;99.90;;;;;;5002087;28;20655;-82
2023/07/26 07:33:24;;;;;;;5.80;4.20;;;41.90;99.90;;;;;;5001512;28;20206;-82
2023/07/26 07:35:49;;;;;;;5.57;3.23;;;43.10;99.90;;;;;;5001537;28;20214;-81
2023/07/26 07:38:16;;;;;;;7.03;3.30;;;44.90;99.90;;;;;;5001275;28;20195;-83
2023/07/26 07:40:41;;;;;;;6.73;3.50;;;46.60;99.90;;;;;;5002238;28;20178;-83
2023/07/26 07:43:06;;;;;;;9.33;3.67;;;47.70;99.90;;;;;;5002342;28;20426;-82
2023/07/26 07:45:37;;;;;;;8.83;4.00;;;45.90;99.90;;;;;;4999006;28;20208;-82
2023/07/26 07:48:03;;;;;;;7.20;4.37;;;44.20;99.90;;;;;;5061428;28;20197;-82
2023/07/26 07:50:28;;;;;;;6.30;4.30;;;42.20;99.90;;;;;;5083596;28;20427;-81
2023/07/26 07:52:54;;;;;;;7.63;4.20;;;40.60;99.90;;;;;;5082855;28;20290;-82
2023/07/26 07:55:19;;;;;;;5.83;4.33;;;42.30;99.90;;;;;;5083346;28;20276;-81
2023/07/26 07:57:45;;;;;;;9.57;4.20;;;42.20;99.90;;;;;;5084371;28;20298;-82
2023/07/26 08:00:11;;;;;;;7.20;3.93;;;39.30;99.90;;;;;;5083083;28;20187;-80
2023/07/26 08:02:37;;;;;;;6.47;4.00;;;36.50;99.90;;;;;;5082435;28;20203;-82
2023/07/26 08:05:02;;;;;;;9.90;4.70;;;34.00;1.00;;;;;;5082885;28;20491;-81
2023/07/26 08:07:28;;;;;;;6.27;3.40;;;35.30;6.00;;;;;;5082264;28;20208;-81
2023/07/26 08:09:53;;;;;;;7.83;4.30;;;36.00;6.50;;;;;;5082364;28;20261;-81
2023/07/26 08:12:19;;;;;;;7.07;4.60;;;34.70;5.20;;;;;;5082780;28;20677;-81
2023/07/26 08:14:49;;;;;;;8.30;4.70;;;32.90;3.60;;;;;;5083337;28;20177;-81
2023/07/26 08:17:14;;;;;;;6.70;4.20;;;33.30;8.00;;;;;;5013693;28;20235;-81
2023/07/26 08:19:40;;;;;;;9.07;4.30;;;34.40;10.50;;;;;;5002848;28;20423;-81
2023/07/26 08:22:05;;;;;;;9.40;4.70;;;33.40;8.50;;;;;;5000577;28;20656;-81
2023/07/26 08:24:31;;;;;;;8.40;5.00;;;33.00;9.80;;;;;;5001156;28;20180;-81
2023/07/26 08:26:56;;;;;;;9.10;3.80;;;33.10;11.30;;;;;;5000167;28;20223;-81
2023/07/26 08:29:22;;;;;;;5.93;4.17;;;33.30;12.90;;;;;;4999788;28;20237;-81
2023/07/26 08:31:47;;;;;;;6.77;4.20;;;33.60;13.60;;;;;;5000240;28;20179;-82
2023/07/26 08:34:13;;;;;;;7.90;4.10;;;34.00;15.00;;;;;;5001281;28;20188;-82
2023/07/26 08:36:38;;;;;;;7.87;4.87;;;34.50;15.90;;;;;;5001740;28;20208;-81
2023/07/26 08:39:04;;;;;;;7.60;4.40;;;34.50;25.50;;;;;;5000314;28;20703;-82
2023/07/26 08:41:30;;;;;;;9.10;4.80;;;35.50;17.40;;;;;;4999913;28;20183;-81
2023/07/26 08:43:59;;;;;;;7.83;3.80;;;36.60;18.20;;;;;;4999484;28;20209;-82
2023/07/26 08:46:26;;;;;;;6.33;4.43;;;39.20;20.00;;;;;;4999413;28;20470;-82
2023/07/26 08:48:53;;;;;;;8.70;4.70;;;41.60;22.00;;;;;;5001189;28;20810;-83
2023/07/26 08:51:20;;;;;;;5.50;4.13;;;42.90;99.90;;;;;;5001121;28;20422;-81
2023/07/26 08:53:48;;;;;;;4.90;3.60;;;41.90;99.90;;;;;;5000541;28;20415;-80
2023/07/26 08:56:15;;;;;;;15.93;3.80;;;40.80;99.90;;;;;;5000284;28;20992;-82
2023/07/26 08:58:42;;;;;;;5.40;3.70;;;42.30;99.90;;;;;;5001869;28;20425;-82
2023/07/26 09:01:08;;;;;;;7.30;3.93;;;42.40;99.90;;;;;;5000821;28;20434;-82
2023/07/26 09:03:33;;;;;;;4.00;3.60;;;41.90;99.90;;;;;;5000750;28;20422;-82
2023/07/26 09:06:06;;;;;;;10.60;5.00;;;38.90;99.90;;;;;;4999380;28;20517;-82
2023/07/26 09:08:32;;;;;;;8.90;4.20;;;35.60;4.00;;;;;;4999080;28;20200;-82
2023/07/26 09:10:58;;;;;;;8.67;4.30;;;33.10;1.70;;;;;;4998954;28;20476;-82
2023/07/26 09:13:24;;;;;;;7.17;4.80;;;31.00;1.00;;;;;;5000272;28;20621;-81
2023/07/26 09:15:50;;;;;;;12.00;5.50;;;29.10;8.50;;;;;;5014471;28;20499;-81
2023/07/26 09:18:16;;;;;;;11.97;5.50;;;27.70;99.90;;;;;;5079143;28;20212;-82
2023/07/26 09:20:41;;;;;;;6.90;5.20;;;26.80;99.90;;;;;;5080808;28;20419;-81
2023/07/26 09:23:09;;;;;;;8.10;4.77;;;26.20;99.90;;;;;;5081468;28;20191;-82
2023/07/26 09:25:40;;;;;;;8.93;5.60;;;25.90;99.90;;;;;;5085859;28;20201;-81
2023/07/26 09:28:07;;;;;;;7.57;4.97;;;26.80;63.50;;;;;;5088981;28;20427;-81
2023/07/26 09:30:50;;;;;;;6.30;4.17;;;28.30;17.30;;;;;;5082244;28;20469;-81
2023/07/26 09:33:16;;;;;;;6.97;4.07;;;32.40;99.90;;;;;;5074675;28;20426;-81
2023/07/26 09:35:47;;;;;;;10.37;4.10;;;35.50;25.80;;;;;;5073371;28;20439;-82
2023/07/26 09:38:15;;;;;;;6.10;3.50;;;37.90;25.30;;;;;;5073338;28;20200;-81
2023/07/26 09:40:42;;;;;;;4.37;3.97;;;38.20;21.70;;;;;;5074361;28;20463;-81
2023/07/26 09:43:08;;;;;;;8.67;3.60;;;38.30;20.70;;;;;;5075065;28;20422;-82
2023/07/26 09:45:36;;;;;;;7.80;4.07;;;40.00;20.90;;;;;;5069676;28;20577;-83
2023/07/26 09:48:09;;;;;;;5.57;3.20;;;39.20;17.50;;;;;;4998033;28;20211;-83
2023/07/26 09:50:35;;;;;;;5.87;3.73;;;36.60;12.60;;;;;;4998022;28;20967;-82
2023/07/26 09:53:03;;;;;;;5.90;4.20;;;35.40;99.90;;;;;;4997665;28;20779;-81
2023/07/26 09:55:28;;;;;;;6.37;4.00;;;34.10;10.40;;;;;;4997775;28;20451;-81
2023/07/26 09:57:56;;;;;;;8.00;4.13;;;32.80;10.60;;;;;;4996597;28;20488;-82
2023/07/26 10:00:24;;;;;;;8.03;4.67;;;31.40;8.50;;;;;;4996409;28;20195;-81
2023/07/26 10:03:04;;;;;;;5.27;4.20;;;30.00;6.90;;;;;;4996610;28;20923;-81
2023/07/26 10:05:36;;;;;;;5.20;4.13;;;28.90;7.50;;;;;;4996685;28;20508;-81
2023/07/26 10:08:02;;;;;;;6.33;4.30;;;28.10;99.90;;;;;;4997972;28;20959;-80
2023/07/26 10:10:29;;;;;;;3.90;2.90;;;27.60;99.90;;;;;;4998052;28;20418;-81
2023/07/26 10:12:57;;;;;;;6.67;3.37;;;27.30;99.90;;;;;;4996775;28;20465;-81
2023/07/26 10:15:26;;;;;;;5.10;3.27;;;27.30;99.90;;;;;;4999160;28;20708;-81
2023/07/26 10:17:52;;;;;;;5.10;3.00;;;27.80;99.90;;;;;;4997589;28;20442;-81
2023/07/26 10:20:18;;;;;;;5.20;3.50;;;27.80;99.90;;;;;;4998859;28;20414;-82
2023/07/26 10:22:47;;;;;;;4.50;3.20;;;27.40;99.90;;;;;;4997839;28;20483;-82
2023/07/26 10:25:12;;;;;;;5.77;3.73;;;27.00;99.90;;;;;;4997299;28;20184;-81
2023/07/26 10:27:39;;;;;;;4.20;3.60;;;26.40;99.90;;;;;;4997615;28;20450;-81
2023/07/26 10:30:06;;;;;;;4.50;3.60;;;25.90;99.90;;;;;;5000677;28;20688;-81
2023/07/26 10:32:32;;;;;;;7.53;4.17;;;25.70;91.20;;;;;;5000236;28;20920;-81
2023/07/26 10:34:59;;;;;;;8.73;4.00;;;25.70;51.70;;;;;;5001439;28;20431;-81
2023/07/26 10:37:33;;;;;;;5.23;3.37;;;26.10;37.90;;;;;;5000993;28;20699;-80
2023/07/26 10:40:05;;;;;;;4.97;3.70;;;26.10;34.10;;;;;;4999852;28;20475;-81
2023/07/26 10:42:30;;;;;;;11.20;3.80;;;26.00;34.50;;;;;;5001191;28;20418;-80
2023/07/26 10:45:01;;;;;;;6.20;4.13;;;25.60;33.70;;;;;;5000352;28;20476;-81
2023/07/26 10:47:27;;;;;;;8.53;4.00;;;25.20;31.60;;;;;;5068709;28;20201;-82
2023/07/26 10:50:05;;;;;;;6.10;3.97;;;24.90;23.30;;;;;;5083619;28;20414;-79
2023/07/26 10:52:37;;;;;;;5.57;4.00;;;24.30;21.80;;;;;;5083465;28;20184;-81
2023/07/26 10:55:20;;;;;;;6.50;4.07;;;23.80;99.90;;;;;;5082678;28;20440;-80
2023/07/26 10:57:48;;;;;;;6.57;3.27;;;25.20;27.60;;;;;;5082736;28;20438;-82
2023/07/26 11:00:22;;;;;;;3.53;2.97;;;27.80;35.70;;;;;;5083886;28;20537;-82
2023/07/26 11:02:50;;;;;;;4.70;2.80;;;30.10;41.50;;;;;;5085354;28;20464;-82
2023/07/26 11:05:21;;;;;;;3.53;2.80;;;31.70;44.90;;;;;;5083557;28;20426;-82
2023/07/26 11:07:54;;;;;;;4.47;2.90;;;33.00;99.90;;;;;;5084309;28;20431;-83
2023/07/26 11:10:28;;;;;;;5.17;2.80;;;34.00;99.90;;;;;;5083896;28;20416;-82
2023/07/26 11:13:16;;;;;;;8.70;3.00;;;34.90;99.90;;;;;;5084917;28;20472;-81
2023/07/26 11:15:44;;;;;;;4.70;2.90;;;35.50;40.90;;;;;;5067043;28;20425;-81
2023/07/26 11:18:11;;;;;;;8.20;3.20;;;36.00;37.80;;;;;;5001896;28;20916;-81
2023/07/26 11:20:48;;;;;;;4.07;2.70;;;36.20;35.70;;;;;;5004172;28;20474;-82
2023/07/26 11:23:25;;;;;;;5.03;2.00;;;36.50;34.00;;;;;;5002788;28;20463;-83
2023/07/26 11:25:53;;;;;;;3.07;1.90;;;36.50;30.00;;;;;;5000507;28;20505;-82
2023/07/26 11:28:19;;;;;;;4.07;2.90;;;34.40;23.30;;;;;;5000581;28;20496;-80
2023/07/26 11:30:50;;;;;;;3.20;2.30;;;32.40;19.20;;;;;;5000892;28;20423;-82
2023/07/26 11:33:32;;;;;;;4.70;2.60;;;31.10;17.40;;;;;;5001878;28;20412;-82
2023/07/26 11:35:59;;;;;;;3.23;2.93;;;29.80;60.50;;;;;;5000052;28;20427;-82
2023/07/26 11:38:25;;;;;;;4.33;3.00;;;29.10;99.90;;;;;;5001516;28;20472;-81
2023/07/26 11:40:53;;;;;;;5.87;3.23;;;28.60;99.90;;;;;;4999959;28;20411;-82
2023/07/26 11:43:19;;;;;;;5.13;2.97;;;28.20;99.90;;;;;;5000672;28;20418;-80
2023/07/26 11:45:45;;;;;;;16.03;3.43;;;28.00;99.90;;;;;;5003318;28;20471;-80
2023/07/26 11:48:11;;;;;;;4.00;3.57;;;27.90;99.90;;;;;;5027397;28;20468;-80
2023/07/26 11:50:37;;;;;;;4.30;3.00;;;28.60;99.90;;;;;;5002338;28;20176;-81
2023/07/26 11:53:08;;;;;;;3.90;2.63;;;30.30;99.90;;;;;;5000737;28;20423;-81
2023/07/26 11:55:34;;;;;;;6.50;3.00;;;30.90;83.00;;;;;;5000632;28;20427;-81
2023/07/26 11:58:03;;;;;;;5.80;3.00;;;30.70;46.00;;;;;;5000644;28;20531;-81
2023/07/26 12:00:33;;;;;;;8.17;3.43;;;30.10;36.60;;;;;;5001072;28;20411;-81
2023/07/26 12:03:04;;;;;;;4.63;3.63;;;29.40;31.10;;;;;;5001492;28;20415;-82
2023/07/26 12:05:31;;;;;;;3.33;3.00;;;29.00;25.30;;;;;;5001289;28;20407;-81
2023/07/26 12:07:58;;;;;;;7.17;3.77;;;29.20;23.50;;;;;;4998975;28;20927;-82
2023/07/26 12:10:28;;;;;;;3.77;2.80;;;30.10;26.50;;;;;;4998980;28;20907;-81
2023/07/26 12:12:54;;;;;;;5.00;3.00;;;30.70;26.80;;;;;;5000003;28;20422;-79
2023/07/26 12:15:20;;;;;;;6.33;3.00;;;30.20;24.90;;;;;;4993441;28;20907;-81
2023/07/26 12:17:58;;;;;;;5.80;3.00;;;29.50;23.10;;;;;;5066130;28;20209;-81
2023/07/26 12:20:25;;;;;;;3.33;2.80;;;28.80;21.00;;;;;;5073917;28;20638;-80
2023/07/26 12:22:56;;;;;;;4.47;3.23;;;28.20;19.80;;;;;;5073274;28;20408;-80
2023/07/26 12:25:37;;;;;;;6.20;3.27;;;27.60;18.10;;;;;;5072927;28;20449;-81
2023/07/26 12:28:07;;;;;;;5.00;3.70;;;27.10;18.90;;;;;;5079935;28;20531;-82
2023/07/26 12:30:32;;;;;;;3.53;3.20;;;27.70;20.70;;;;;;5080563;28;20411;-81
2023/07/26 12:33:11;;;;;;;4.97;2.93;;;28.80;23.70;;;;;;5081387;28;20423;-82
2023/07/26 12:35:37;;;;;;;5.43;3.60;;;29.90;25.60;;;;;;5081380;28;20192;-82
2023/07/26 12:38:10;;;;;;;3.20;2.33;;;30.90;27.10;;;;;;5081789;28;20463;-82
2023/07/26 12:40:36;;;;;;;3.70;2.43;;;31.60;27.30;;;;;;5081391;28;20422;-82
2023/07/26 12:43:24;;;;;;;3.40;2.30;;;31.90;25.60;;;;;;5080813;28;20442;-82
2023/07/26 12:45:51;;;;;;;4.50;2.63;;;32.40;24.70;;;;;;5059224;28;20571;-82
2023/07/26 12:48:16;;;;;;;4.47;2.50;;;32.50;23.50;;;;;;4998096;28;20439;-81
2023/07/26 12:50:42;;;;;;;3.70;2.57;;;32.50;22.30;;;;;;4998609;28;20415;-81